Kimberly, Oregon
Current Conditions -  °F | °C
As of 8:35 AM on Monday 26 Jan 2015 (Local Time) from KGCD Reporting Station
Clear Clear  
Wind Chill: 45°   Ceiling: Unl
Heat Index: 49°   Visibility: 10mi
Dew Point: 32°   Wind: 9mph
Humidity: 53%   Direction: 100°E
Pressure: 30.17"   Gusts: NA
Location:  44.76°N, 119.65°W
Report Text: KGCD 261635Z AUTO 10008KT 10SM CLR 09/00 A3017 RMK AO2 T00920001
Loading
Personal Weather Stations






























Interactive Weather Map New forecast layout! Learn more

10-Day Weather Forecast

Advertisements
Track Severe Weather on mobile